This is the latest recevied weather packets stored in our database for station/object MKSRDG. If no packets are shown the sender has not sent any weather packets the latest 10 day(s).
| Time | Temp. | Humidity | Pressure | Rain* | Wind** | Luminosity | Snow |
|---|---|---|---|---|---|---|---|
| 1777757094 | 14.44° C | 85% | 1012.9 hPa | 0 mm | - | 775 W/m² | - |
| 1777756194 | 13.89° C | 83% | 1013.2 hPa | 0 mm | - | 557 W/m² | - |
| 1777755294 | 14.44° C | 84% | 1013.1 hPa | 0 mm | - | 882 W/m² | - |
| 1777754394 | 13.33° C | 85% | 1013.2 hPa | 0 mm | - | 622 W/m² | - |
| 1777753494 | 13.33° C | 85% | 1013.4 hPa | 0 mm | - | 455 W/m² | - |
| 1777752594 | 13.89° C | 85% | 1013.6 hPa | 0 mm | - | 763 W/m² | - |
| 1777751694 | 12.78° C | 86% | 1013.7 hPa | 0 mm | - | 415 W/m² | - |
| 1777750794 | 12.78° C | 87% | 1013.9 hPa | 0 mm | - | 613 W/m² | - |
| 1777749894 | 11.11° C | 90% | 1014 hPa | 0 mm | - | 457 W/m² | - |
| 1777748994 | 11.11° C | 90% | 1014.3 hPa | 0 mm | - | 169 W/m² | - |
| 1777748094 | 11.11° C | 90% | 1014.4 hPa | 0 mm | - | 192 W/m² | - |
| 1777747194 | 11.11° C | 89% | 1014.4 hPa | 0 mm | - | 334 W/m² | - |
| 1777746294 | 11.11° C | 92% | 1014.5 hPa | 0 mm | - | 381 W/m² | - |
| 1777745394 | 10.56° C | 91% | 1014.4 hPa | 0 mm | - | 464 W/m² | - |
| 1777744494 | 10.56° C | 92% | 1014.5 hPa | 0 mm | - | 350 W/m² | - |
| 1777743594 | 9.44° C | 94% | 1014.5 hPa | 0 mm | - | 292 W/m² | - |
| 1777742694 | 9.44° C | 94% | 1014.7 hPa | 0 mm | - | 206 W/m² | - |
| 1777741794 | 8.89° C | 94% | 1014.5 hPa | 0 mm | - | 151 W/m² | - |
| 1777740894 | 8.89° C | 94% | 1014.5 hPa | 0 mm | - | 165 W/m² | - |
| 1777739994 | 8.89° C | 94% | 1014.6 hPa | 0 mm | - | 98 W/m² | - |
| 1777739094 | 8.33° C | 94% | 1014.6 hPa | 0 mm | - | 163 W/m² | - |
| 1777738194 | 8.89° C | 94% | 1014.7 hPa | 0 mm | - | 134 W/m² | - |
| 1777737294 | 8.33° C | 94% | 1014.8 hPa | 0 mm | - | 137 W/m² | - |
| 1777736394 | 8.33° C | 94% | 1014.8 hPa | 0 mm | - | 127 W/m² | - |
| 1777735494 | 8.33° C | 94% | 1014.8 hPa | 0 mm | - | 69 W/m² | - |
* Rain latest hour (hover to see other rain measurements)
** Current wind speed in m/s (hover to see current wind gust speed)